sensor_id;sensor_type;location;lat;lon;timestamp;P1;durP1;ratioP1;P2;durP2;ratioP2
5553;SDS011;2800;49.528;8.666;2023-11-21T00:01:51;12.73;;;4.43;;
5553;SDS011;2800;49.528;8.666;2023-11-21T00:04:16;12.13;;;4.33;;
5553;SDS011;2800;49.528;8.666;2023-11-21T00:06:42;15.17;;;4.80;;
5553;SDS011;2800;49.528;8.666;2023-11-21T00:09:08;19.13;;;4.60;;
5553;SDS011;2800;49.528;8.666;2023-11-21T00:11:34;10.20;;;4.83;;
5553;SDS011;2800;49.528;8.666;2023-11-21T00:14:00;13.13;;;4.70;;
5553;SDS011;2800;49.528;8.666;2023-11-21T00:16:25;17.43;;;5.10;;
5553;SDS011;2800;49.528;8.666;2023-11-21T00:18:51;15.83;;;5.00;;
5553;SDS011;2800;49.528;8.666;2023-11-21T00:21:16;14.83;;;5.90;;
5553;SDS011;2800;49.528;8.666;2023-11-21T00:23:42;12.40;;;4.80;;
5553;SDS011;2800;49.528;8.666;2023-11-21T00:26:08;17.67;;;5.80;;
5553;SDS011;2800;49.528;8.666;2023-11-21T00:28:33;15.90;;;5.37;;
5553;SDS011;2800;49.528;8.666;2023-11-21T00:30:59;17.83;;;5.50;;
5553;SDS011;2800;49.528;8.666;2023-11-21T00:33:24;11.63;;;5.60;;
5553;SDS011;2800;49.528;8.666;2023-11-21T00:35:50;11.60;;;5.00;;
5553;SDS011;2800;49.528;8.666;2023-11-21T00:38:15;14.20;;;5.30;;
5553;SDS011;2800;49.528;8.666;2023-11-21T00:40:44;15.83;;;5.60;;
5553;SDS011;2800;49.528;8.666;2023-11-21T00:43:10;15.40;;;5.70;;
5553;SDS011;2800;49.528;8.666;2023-11-21T00:45:35;16.57;;;6.37;;
5553;SDS011;2800;49.528;8.666;2023-11-21T00:48:01;16.53;;;5.80;;
5553;SDS011;2800;49.528;8.666;2023-11-21T00:50:29;15.43;;;6.63;;
5553;SDS011;2800;49.528;8.666;2023-11-21T00:52:55;17.93;;;6.07;;
5553;SDS011;2800;49.528;8.666;2023-11-21T00:55:21;12.90;;;6.00;;
5553;SDS011;2800;49.528;8.666;2023-11-21T00:57:47;12.57;;;5.20;;
5553;SDS011;2800;49.528;8.666;2023-11-21T01:00:12;14.17;;;5.70;;
5553;SDS011;2800;49.528;8.666;2023-11-21T01:02:41;13.87;;;5.43;;
5553;SDS011;2800;49.528;8.666;2023-11-21T01:05:10;23.00;;;6.40;;
5553;SDS011;2800;49.528;8.666;2023-11-21T01:07:36;15.63;;;6.00;;
5553;SDS011;2800;49.528;8.666;2023-11-21T01:10:02;14.07;;;5.30;;
5553;SDS011;2800;49.528;8.666;2023-11-21T01:12:32;16.63;;;5.80;;
5553;SDS011;2800;49.528;8.666;2023-11-21T01:14:59;11.90;;;5.77;;
5553;SDS011;2800;49.528;8.666;2023-11-21T01:17:25;14.70;;;5.73;;
5553;SDS011;2800;49.528;8.666;2023-11-21T01:19:51;22.43;;;5.83;;
5553;SDS011;2800;49.528;8.666;2023-11-21T01:22:17;13.63;;;5.10;;
5553;SDS011;2800;49.528;8.666;2023-11-21T01:24:47;13.40;;;5.70;;
5553;SDS011;2800;49.528;8.666;2023-11-21T01:27:12;14.53;;;5.70;;
5553;SDS011;2800;49.528;8.666;2023-11-21T01:29:38;12.00;;;5.33;;
5553;SDS011;2800;49.528;8.666;2023-11-21T01:32:03;13.57;;;5.27;;
5553;SDS011;2800;49.528;8.666;2023-11-21T01:34:29;12.20;;;5.53;;
5553;SDS011;2800;49.528;8.666;2023-11-21T01:36:55;13.20;;;5.90;;
5553;SDS011;2800;49.528;8.666;2023-11-21T01:39:21;15.53;;;6.70;;
5553;SDS011;2800;49.528;8.666;2023-11-21T01:41:49;11.50;;;5.70;;
5553;SDS011;2800;49.528;8.666;2023-11-21T01:44:16;16.27;;;6.13;;
5553;SDS011;2800;49.528;8.666;2023-11-21T01:46:41;16.37;;;6.20;;
5553;SDS011;2800;49.528;8.666;2023-11-21T01:49:07;17.83;;;6.30;;
5553;SDS011;2800;49.528;8.666;2023-11-21T01:51:38;15.20;;;6.03;;
5553;SDS011;2800;49.528;8.666;2023-11-21T01:54:08;17.30;;;6.70;;
5553;SDS011;2800;49.528;8.666;2023-11-21T01:56:34;15.17;;;5.90;;
5553;SDS011;2800;49.528;8.666;2023-11-21T01:59:00;26.73;;;5.73;;
5553;SDS011;2800;49.528;8.666;2023-11-21T02:01:26;18.80;;;5.33;;
5553;SDS011;2800;49.528;8.666;2023-11-21T02:03:51;10.57;;;5.20;;
5553;SDS011;2800;49.528;8.666;2023-11-21T02:06:17;14.20;;;5.77;;
5553;SDS011;2800;49.528;8.666;2023-11-21T02:08:43;11.87;;;5.63;;
5553;SDS011;2800;49.528;8.666;2023-11-21T02:11:09;12.23;;;5.40;;
5553;SDS011;2800;49.528;8.666;2023-11-21T02:13:37;12.60;;;5.17;;
5553;SDS011;2800;49.528;8.666;2023-11-21T02:16:07;16.40;;;6.10;;
5553;SDS011;2800;49.528;8.666;2023-11-21T02:18:34;11.87;;;5.40;;
5553;SDS011;2800;49.528;8.666;2023-11-21T02:21:01;13.83;;;6.13;;
5553;SDS011;2800;49.528;8.666;2023-11-21T02:23:29;11.90;;;5.77;;
5553;SDS011;2800;49.528;8.666;2023-11-21T02:25:55;16.23;;;5.70;;
5553;SDS011;2800;49.528;8.666;2023-11-21T02:28:20;13.47;;;5.40;;
5553;SDS011;2800;49.528;8.666;2023-11-21T02:30:50;13.03;;;5.37;;
5553;SDS011;2800;49.528;8.666;2023-11-21T02:33:20;14.77;;;5.70;;
5553;SDS011;2800;49.528;8.666;2023-11-21T02:35:46;11.87;;;5.40;;
5553;SDS011;2800;49.528;8.666;2023-11-21T02:38:12;11.07;;;6.00;;
5553;SDS011;2800;49.528;8.666;2023-11-21T02:40:38;23.17;;;6.17;;
5553;SDS011;2800;49.528;8.666;2023-11-21T02:43:04;13.83;;;5.57;;
5553;SDS011;2800;49.528;8.666;2023-11-21T02:45:30;13.23;;;5.63;;
5553;SDS011;2800;49.528;8.666;2023-11-21T02:47:56;14.73;;;6.37;;
5553;SDS011;2800;49.528;8.666;2023-11-21T02:50:22;14.23;;;6.33;;
5553;SDS011;2800;49.528;8.666;2023-11-21T02:52:48;13.23;;;6.40;;
5553;SDS011;2800;49.528;8.666;2023-11-21T02:55:13;13.40;;;6.30;;
5553;SDS011;2800;49.528;8.666;2023-11-21T02:57:39;12.33;;;6.00;;
5553;SDS011;2800;49.528;8.666;2023-11-21T03:00:05;12.10;;;6.20;;
5553;SDS011;2800;49.528;8.666;2023-11-21T03:02:40;14.67;;;6.67;;
5553;SDS011;2800;49.528;8.666;2023-11-21T03:05:06;19.67;;;6.87;;
5553;SDS011;2800;49.528;8.666;2023-11-21T03:07:33;16.50;;;7.10;;
5553;SDS011;2800;49.528;8.666;2023-11-21T03:09:59;13.70;;;6.20;;
5553;SDS011;2800;49.528;8.666;2023-11-21T03:12:24;13.07;;;6.10;;
5553;SDS011;2800;49.528;8.666;2023-11-21T03:14:50;14.93;;;6.67;;
5553;SDS011;2800;49.528;8.666;2023-11-21T03:17:16;15.33;;;6.17;;
5553;SDS011;2800;49.528;8.666;2023-11-21T03:19:41;11.60;;;5.93;;
5553;SDS011;2800;49.528;8.666;2023-11-21T03:22:07;12.03;;;6.10;;
5553;SDS011;2800;49.528;8.666;2023-11-21T03:24:33;15.40;;;6.30;;
5553;SDS011;2800;49.528;8.666;2023-11-21T03:26:59;11.00;;;6.10;;
5553;SDS011;2800;49.528;8.666;2023-11-21T03:29:25;12.60;;;6.00;;
5553;SDS011;2800;49.528;8.666;2023-11-21T03:31:51;13.93;;;6.63;;
5553;SDS011;2800;49.528;8.666;2023-11-21T03:34:23;14.13;;;6.17;;
5553;SDS011;2800;49.528;8.666;2023-11-21T03:36:50;13.43;;;7.63;;
5553;SDS011;2800;49.528;8.666;2023-11-21T03:39:17;12.50;;;6.20;;
5553;SDS011;2800;49.528;8.666;2023-11-21T03:41:42;12.00;;;5.80;;
5553;SDS011;2800;49.528;8.666;2023-11-21T03:44:08;15.20;;;7.10;;
5553;SDS011;2800;49.528;8.666;2023-11-21T03:46:33;12.73;;;6.97;;
5553;SDS011;2800;49.528;8.666;2023-11-21T03:48:59;14.50;;;6.70;;
5553;SDS011;2800;49.528;8.666;2023-11-21T03:51:24;12.07;;;6.73;;
5553;SDS011;2800;49.528;8.666;2023-11-21T03:53:50;16.33;;;6.50;;
5553;SDS011;2800;49.528;8.666;2023-11-21T03:56:15;16.23;;;6.67;;
5553;SDS011;2800;49.528;8.666;2023-11-21T03:58:41;15.73;;;6.97;;
5553;SDS011;2800;49.528;8.666;2023-11-21T04:01:06;14.50;;;6.63;;
5553;SDS011;2800;49.528;8.666;2023-11-21T04:03:32;13.43;;;6.80;;
5553;SDS011;2800;49.528;8.666;2023-11-21T04:05:57;15.80;;;7.10;;
5553;SDS011;2800;49.528;8.666;2023-11-21T04:08:23;12.83;;;7.00;;
5553;SDS011;2800;49.528;8.666;2023-11-21T04:10:50;9.30;;;6.07;;
5553;SDS011;2800;49.528;8.666;2023-11-21T04:13:15;14.03;;;7.17;;
5553;SDS011;2800;49.528;8.666;2023-11-21T04:15:41;12.97;;;7.40;;
5553;SDS011;2800;49.528;8.666;2023-11-21T04:18:06;15.60;;;8.20;;
5553;SDS011;2800;49.528;8.666;2023-11-21T04:20:32;10.90;;;6.40;;
5553;SDS011;2800;49.528;8.666;2023-11-21T04:22:58;14.50;;;7.67;;
5553;SDS011;2800;49.528;8.666;2023-11-21T04:25:23;13.10;;;6.80;;
5553;SDS011;2800;49.528;8.666;2023-11-21T04:27:49;11.90;;;6.67;;
5553;SDS011;2800;49.528;8.666;2023-11-21T04:30:14;10.83;;;6.30;;
5553;SDS011;2800;49.528;8.666;2023-11-21T04:32:40;11.87;;;6.80;;
5553;SDS011;2800;49.528;8.666;2023-11-21T04:35:06;12.63;;;6.63;;
5553;SDS011;2800;49.528;8.666;2023-11-21T04:37:33;13.20;;;6.73;;
5553;SDS011;2800;49.528;8.666;2023-11-21T04:39:59;9.97;;;6.43;;
5553;SDS011;2800;49.528;8.666;2023-11-21T04:42:24;10.13;;;6.20;;
5553;SDS011;2800;49.528;8.666;2023-11-21T04:44:50;13.30;;;5.60;;
5553;SDS011;2800;49.528;8.666;2023-11-21T04:47:17;12.00;;;6.37;;
5553;SDS011;2800;49.528;8.666;2023-11-21T04:49:45;13.23;;;6.80;;
5553;SDS011;2800;49.528;8.666;2023-11-21T04:52:14;14.30;;;7.77;;
5553;SDS011;2800;49.528;8.666;2023-11-21T04:54:39;12.27;;;7.27;;
5553;SDS011;2800;49.528;8.666;2023-11-21T04:57:05;14.30;;;6.87;;
5553;SDS011;2800;49.528;8.666;2023-11-21T04:59:32;13.63;;;6.93;;
5553;SDS011;2800;49.528;8.666;2023-11-21T05:01:58;14.33;;;7.40;;
5553;SDS011;2800;49.528;8.666;2023-11-21T05:04:25;12.40;;;7.80;;
5553;SDS011;2800;49.528;8.666;2023-11-21T05:06:50;13.77;;;8.07;;
5553;SDS011;2800;49.528;8.666;2023-11-21T05:09:16;14.50;;;8.27;;
5553;SDS011;2800;49.528;8.666;2023-11-21T05:11:42;16.43;;;7.90;;
5553;SDS011;2800;49.528;8.666;2023-11-21T05:14:08;12.53;;;9.13;;
5553;SDS011;2800;49.528;8.666;2023-11-21T05:16:33;17.90;;;8.90;;
5553;SDS011;2800;49.528;8.666;2023-11-21T05:19:00;14.47;;;9.30;;
5553;SDS011;2800;49.528;8.666;2023-11-21T05:21:26;14.97;;;9.40;;
5553;SDS011;2800;49.528;8.666;2023-11-21T05:23:52;17.73;;;10.43;;
5553;SDS011;2800;49.528;8.666;2023-11-21T05:26:18;17.97;;;10.37;;
5553;SDS011;2800;49.528;8.666;2023-11-21T05:28:43;17.03;;;9.80;;
5553;SDS011;2800;49.528;8.666;2023-11-21T05:31:09;12.10;;;9.63;;
5553;SDS011;2800;49.528;8.666;2023-11-21T05:33:35;14.63;;;9.40;;
5553;SDS011;2800;49.528;8.666;2023-11-21T05:36:01;15.63;;;10.50;;
5553;SDS011;2800;49.528;8.666;2023-11-21T05:38:27;15.83;;;9.80;;
5553;SDS011;2800;49.528;8.666;2023-11-21T05:40:53;15.10;;;9.87;;
5553;SDS011;2800;49.528;8.666;2023-11-21T05:43:19;20.97;;;11.27;;
5553;SDS011;2800;49.528;8.666;2023-11-21T05:45:44;21.77;;;10.73;;
5553;SDS011;2800;49.528;8.666;2023-11-21T05:48:10;16.80;;;10.87;;
5553;SDS011;2800;49.528;8.666;2023-11-21T05:50:35;15.20;;;10.80;;
5553;SDS011;2800;49.528;8.666;2023-11-21T05:53:02;16.20;;;11.07;;
5553;SDS011;2800;49.528;8.666;2023-11-21T05:55:28;20.07;;;11.10;;
5553;SDS011;2800;49.528;8.666;2023-11-21T05:57:53;17.20;;;10.80;;
5553;SDS011;2800;49.528;8.666;2023-11-21T06:00:19;19.53;;;11.03;;
5553;SDS011;2800;49.528;8.666;2023-11-21T06:02:46;16.47;;;11.20;;
5553;SDS011;2800;49.528;8.666;2023-11-21T06:05:12;17.67;;;11.83;;
5553;SDS011;2800;49.528;8.666;2023-11-21T06:07:38;18.03;;;12.30;;
5553;SDS011;2800;49.528;8.666;2023-11-21T06:10:05;16.40;;;11.00;;
5553;SDS011;2800;49.528;8.666;2023-11-21T06:12:34;20.40;;;12.60;;
5553;SDS011;2800;49.528;8.666;2023-11-21T06:15:01;16.60;;;11.90;;
5553;SDS011;2800;49.528;8.666;2023-11-21T06:17:30;20.27;;;12.77;;
5553;SDS011;2800;49.528;8.666;2023-11-21T06:20:01;18.87;;;13.27;;
5553;SDS011;2800;49.528;8.666;2023-11-21T06:22:28;17.70;;;12.83;;
5553;SDS011;2800;49.528;8.666;2023-11-21T06:24:55;19.90;;;12.47;;
5553;SDS011;2800;49.528;8.666;2023-11-21T06:27:21;18.60;;;14.20;;
5553;SDS011;2800;49.528;8.666;2023-11-21T06:29:46;23.77;;;14.90;;
5553;SDS011;2800;49.528;8.666;2023-11-21T06:32:12;24.40;;;14.17;;
5553;SDS011;2800;49.528;8.666;2023-11-21T06:34:38;23.53;;;14.60;;
5553;SDS011;2800;49.528;8.666;2023-11-21T06:37:03;22.50;;;16.83;;
5553;SDS011;2800;49.528;8.666;2023-11-21T06:39:29;22.07;;;14.87;;
5553;SDS011;2800;49.528;8.666;2023-11-21T06:41:55;21.30;;;16.90;;
5553;SDS011;2800;49.528;8.666;2023-11-21T06:44:21;23.43;;;15.70;;
5553;SDS011;2800;49.528;8.666;2023-11-21T06:46:46;20.93;;;15.83;;
5553;SDS011;2800;49.528;8.666;2023-11-21T06:49:13;21.10;;;15.37;;
5553;SDS011;2800;49.528;8.666;2023-11-21T06:51:39;21.03;;;15.90;;
5553;SDS011;2800;49.528;8.666;2023-11-21T06:54:05;24.20;;;15.73;;
5553;SDS011;2800;49.528;8.666;2023-11-21T06:56:31;25.00;;;16.90;;
5553;SDS011;2800;49.528;8.666;2023-11-21T06:58:57;22.60;;;17.80;;
5553;SDS011;2800;49.528;8.666;2023-11-21T07:01:22;26.33;;;18.90;;
5553;SDS011;2800;49.528;8.666;2023-11-21T07:03:48;25.47;;;18.60;;
5553;SDS011;2800;49.528;8.666;2023-11-21T07:06:13;24.53;;;18.60;;
5553;SDS011;2800;49.528;8.666;2023-11-21T07:08:39;31.50;;;18.30;;
5553;SDS011;2800;49.528;8.666;2023-11-21T07:11:04;24.73;;;18.77;;
5553;SDS011;2800;49.528;8.666;2023-11-21T07:13:30;25.20;;;18.80;;
5553;SDS011;2800;49.528;8.666;2023-11-21T07:15:57;27.33;;;19.50;;
5553;SDS011;2800;49.528;8.666;2023-11-21T07:18:23;28.40;;;21.33;;
5553;SDS011;2800;49.528;8.666;2023-11-21T07:20:49;29.23;;;20.50;;
5553;SDS011;2800;49.528;8.666;2023-11-21T07:23:14;32.33;;;21.93;;
5553;SDS011;2800;49.528;8.666;2023-11-21T07:25:40;29.93;;;20.23;;
5553;SDS011;2800;49.528;8.666;2023-11-21T07:28:06;29.70;;;21.60;;
5553;SDS011;2800;49.528;8.666;2023-11-21T07:30:32;28.87;;;21.17;;
5553;SDS011;2800;49.528;8.666;2023-11-21T07:32:58;32.37;;;20.70;;
5553;SDS011;2800;49.528;8.666;2023-11-21T07:35:23;27.90;;;21.50;;
5553;SDS011;2800;49.528;8.666;2023-11-21T07:37:49;28.10;;;20.27;;
5553;SDS011;2800;49.528;8.666;2023-11-21T07:40:14;29.00;;;23.17;;
5553;SDS011;2800;49.528;8.666;2023-11-21T07:42:40;29.20;;;19.10;;
5553;SDS011;2800;49.528;8.666;2023-11-21T07:45:07;27.20;;;20.03;;
5553;SDS011;2800;49.528;8.666;2023-11-21T07:47:33;22.50;;;15.57;;
5553;SDS011;2800;49.528;8.666;2023-11-21T07:49:59;22.97;;;16.47;;
5553;SDS011;2800;49.528;8.666;2023-11-21T07:52:27;20.40;;;17.00;;
5553;SDS011;2800;49.528;8.666;2023-11-21T07:54:53;21.90;;;18.60;;
5553;SDS011;2800;49.528;8.666;2023-11-21T07:57:18;26.53;;;17.63;;
5553;SDS011;2800;49.528;8.666;2023-11-21T07:59:44;59.60;;;44.93;;
5553;SDS011;2800;49.528;8.666;2023-11-21T08:02:09;45.57;;;35.90;;
5553;SDS011;2800;49.528;8.666;2023-11-21T08:04:35;28.80;;;24.43;;
5553;SDS011;2800;49.528;8.666;2023-11-21T08:07:01;29.87;;;23.17;;
5553;SDS011;2800;49.528;8.666;2023-11-21T08:09:27;24.97;;;19.50;;
5553;SDS011;2800;49.528;8.666;2023-11-21T08:11:52;23.23;;;19.93;;
5553;SDS011;2800;49.528;8.666;2023-11-21T08:14:18;19.87;;;16.50;;
5553;SDS011;2800;49.528;8.666;2023-11-21T08:16:44;19.90;;;15.07;;
5553;SDS011;2800;49.528;8.666;2023-11-21T08:19:09;20.13;;;13.77;;
5553;SDS011;2800;49.528;8.666;2023-11-21T08:21:36;16.77;;;12.67;;
5553;SDS011;2800;49.528;8.666;2023-11-21T08:24:04;13.60;;;9.77;;
5553;SDS011;2800;49.528;8.666;2023-11-21T08:26:30;11.37;;;8.80;;
5553;SDS011;2800;49.528;8.666;2023-11-21T08:28:55;10.17;;;7.33;;
5553;SDS011;2800;49.528;8.666;2023-11-21T08:31:27;9.00;;;6.80;;
5553;SDS011;2800;49.528;8.666;2023-11-21T08:33:53;7.90;;;5.07;;
5553;SDS011;2800;49.528;8.666;2023-11-21T08:36:20;6.30;;;4.13;;
5553;SDS011;2800;49.528;8.666;2023-11-21T08:38:48;7.40;;;4.93;;
5553;SDS011;2800;49.528;8.666;2023-11-21T08:41:13;16.43;;;12.60;;
5553;SDS011;2800;49.528;8.666;2023-11-21T08:43:39;20.97;;;15.30;;
5553;SDS011;2800;49.528;8.666;2023-11-21T08:46:06;11.60;;;8.67;;
5553;SDS011;2800;49.528;8.666;2023-11-21T08:48:33;9.77;;;6.70;;
5553;SDS011;2800;49.528;8.666;2023-11-21T08:51:00;7.03;;;4.67;;
5553;SDS011;2800;49.528;8.666;2023-11-21T08:53:26;9.40;;;3.67;;
5553;SDS011;2800;49.528;8.666;2023-11-21T08:55:52;7.13;;;3.07;;
5553;SDS011;2800;49.528;8.666;2023-11-21T08:58:18;6.70;;;3.73;;
5553;SDS011;2800;49.528;8.666;2023-11-21T09:00:44;8.33;;;5.10;;
5553;SDS011;2800;49.528;8.666;2023-11-21T09:03:11;7.47;;;5.03;;
5553;SDS011;2800;49.528;8.666;2023-11-21T09:05:37;13.00;;;8.53;;
5553;SDS011;2800;49.528;8.666;2023-11-21T09:08:04;6.10;;;4.03;;
5553;SDS011;2800;49.528;8.666;2023-11-21T09:10:29;7.40;;;4.60;;
5553;SDS011;2800;49.528;8.666;2023-11-21T09:12:55;10.27;;;6.77;;
5553;SDS011;2800;49.528;8.666;2023-11-21T09:15:21;14.80;;;10.40;;
5553;SDS011;2800;49.528;8.666;2023-11-21T09:17:47;10.30;;;8.00;;
5553;SDS011;2800;49.528;8.666;2023-11-21T09:20:13;7.90;;;4.80;;
5553;SDS011;2800;49.528;8.666;2023-11-21T09:22:39;6.37;;;3.80;;
5553;SDS011;2800;49.528;8.666;2023-11-21T09:25:05;8.23;;;4.40;;
5553;SDS011;2800;49.528;8.666;2023-11-21T09:27:33;8.07;;;5.20;;
5553;SDS011;2800;49.528;8.666;2023-11-21T09:30:00;7.77;;;3.70;;
5553;SDS011;2800;49.528;8.666;2023-11-21T09:32:26;10.57;;;8.47;;
5553;SDS011;2800;49.528;8.666;2023-11-21T09:34:51;18.13;;;14.47;;
5553;SDS011;2800;49.528;8.666;2023-11-21T09:37:18;18.47;;;11.50;;
5553;SDS011;2800;49.528;8.666;2023-11-21T09:39:44;16.87;;;12.90;;
5553;SDS011;2800;49.528;8.666;2023-11-21T09:42:16;22.90;;;16.27;;
5553;SDS011;2800;49.528;8.666;2023-11-21T09:44:57;31.23;;;22.77;;
5553;SDS011;2800;49.528;8.666;2023-11-21T09:47:26;50.07;;;35.37;;
5553;SDS011;2800;49.528;8.666;2023-11-21T09:49:52;60.07;;;44.03;;
5553;SDS011;2800;49.528;8.666;2023-11-21T09:52:24;51.13;;;36.33;;
5553;SDS011;2800;49.528;8.666;2023-11-21T09:54:51;24.37;;;15.97;;
5553;SDS011;2800;49.528;8.666;2023-11-21T09:57:19;48.73;;;31.63;;
5553;SDS011;2800;49.528;8.666;2023-11-21T09:59:46;92.27;;;55.60;;
5553;SDS011;2800;49.528;8.666;2023-11-21T10:02:15;166.63;;;86.37;;
5553;SDS011;2800;49.528;8.666;2023-11-21T10:04:43;167.40;;;69.63;;
5553;SDS011;2800;49.528;8.666;2023-11-21T10:07:10;101.57;;;47.37;;
5553;SDS011;2800;49.528;8.666;2023-11-21T10:09:37;56.70;;;30.20;;
5553;SDS011;2800;49.528;8.666;2023-11-21T10:12:03;12.77;;;9.40;;
5553;SDS011;2800;49.528;8.666;2023-11-21T10:14:33;10.50;;;7.80;;
5553;SDS011;2800;49.528;8.666;2023-11-21T10:17:02;12.03;;;7.70;;
5553;SDS011;2800;49.528;8.666;2023-11-21T10:19:28;12.10;;;8.10;;
5553;SDS011;2800;49.528;8.666;2023-11-21T10:21:55;11.40;;;8.70;;
5553;SDS011;2800;49.528;8.666;2023-11-21T10:24:22;11.33;;;8.77;;
5553;SDS011;2800;49.528;8.666;2023-11-21T10:26:48;11.20;;;8.80;;
5553;SDS011;2800;49.528;8.666;2023-11-21T10:29:15;14.90;;;10.10;;
5553;SDS011;2800;49.528;8.666;2023-11-21T10:31:46;12.27;;;9.20;;
5553;SDS011;2800;49.528;8.666;2023-11-21T10:34:19;12.00;;;9.80;;
5553;SDS011;2800;49.528;8.666;2023-11-21T10:36:45;12.57;;;10.43;;
5553;SDS011;2800;49.528;8.666;2023-11-21T10:39:18;17.30;;;10.67;;
5553;SDS011;2800;49.528;8.666;2023-11-21T10:41:45;18.63;;;11.47;;
5553;SDS011;2800;49.528;8.666;2023-11-21T10:44:17;13.57;;;11.83;;
5553;SDS011;2800;49.528;8.666;2023-11-21T10:46:50;17.40;;;13.10;;
5553;SDS011;2800;49.528;8.666;2023-11-21T10:49:18;15.60;;;12.67;;
5553;SDS011;2800;49.528;8.666;2023-11-21T10:51:45;18.80;;;14.10;;
5553;SDS011;2800;49.528;8.666;2023-11-21T10:54:11;18.30;;;14.50;;
5553;SDS011;2800;49.528;8.666;2023-11-21T10:56:37;17.00;;;14.17;;
5553;SDS011;2800;49.528;8.666;2023-11-21T10:59:07;19.73;;;14.53;;
5553;SDS011;2800;49.528;8.666;2023-11-21T11:01:35;17.63;;;14.10;;
5553;SDS011;2800;49.528;8.666;2023-11-21T11:04:02;20.83;;;14.57;;
5553;SDS011;2800;49.528;8.666;2023-11-21T11:06:34;19.20;;;15.03;;
5553;SDS011;2800;49.528;8.666;2023-11-21T11:09:00;19.03;;;14.80;;
5553;SDS011;2800;49.528;8.666;2023-11-21T11:11:27;21.27;;;14.27;;
5553;SDS011;2800;49.528;8.666;2023-11-21T11:13:55;20.87;;;15.13;;
5553;SDS011;2800;49.528;8.666;2023-11-21T11:16:21;18.60;;;15.47;;
5553;SDS011;2800;49.528;8.666;2023-11-21T11:18:49;23.33;;;15.53;;
5553;SDS011;2800;49.528;8.666;2023-11-21T11:26:42;20.63;;;14.33;;
5553;SDS011;2800;49.528;8.666;2023-11-21T11:32:25;17.40;;;13.10;;
5553;SDS011;2800;49.528;8.666;2023-11-21T11:35:07;16.67;;;13.50;;
5553;SDS011;2800;49.528;8.666;2023-11-21T11:37:41;17.90;;;13.20;;
5553;SDS011;2800;49.528;8.666;2023-11-21T11:40:07;17.70;;;12.60;;
5553;SDS011;2800;49.528;8.666;2023-11-21T11:42:35;16.33;;;11.10;;
5553;SDS011;2800;49.528;8.666;2023-11-21T11:45:01;12.07;;;9.87;;
5553;SDS011;2800;49.528;8.666;2023-11-21T11:47:30;12.43;;;8.57;;
5553;SDS011;2800;49.528;8.666;2023-11-21T11:50:03;12.53;;;7.90;;
5553;SDS011;2800;49.528;8.666;2023-11-21T11:52:33;11.63;;;7.20;;
5553;SDS011;2800;49.528;8.666;2023-11-21T11:55:00;9.40;;;6.63;;
5553;SDS011;2800;49.528;8.666;2023-11-21T11:57:29;9.97;;;6.70;;
5553;SDS011;2800;49.528;8.666;2023-11-21T12:02:57;10.07;;;6.87;;
5553;SDS011;2800;49.528;8.666;2023-11-21T12:05:24;10.60;;;6.57;;
5553;SDS011;2800;49.528;8.666;2023-11-21T12:07:56;10.70;;;6.57;;
5553;SDS011;2800;49.528;8.666;2023-11-21T12:10:26;12.13;;;5.57;;
5553;SDS011;2800;49.528;8.666;2023-11-21T12:12:55;11.83;;;5.10;;
5553;SDS011;2800;49.528;8.666;2023-11-21T12:15:23;13.97;;;5.40;;
5553;SDS011;2800;49.528;8.666;2023-11-21T12:17:50;7.60;;;4.33;;
5553;SDS011;2800;49.528;8.666;2023-11-21T12:20:18;13.30;;;8.67;;
5553;SDS011;2800;49.528;8.666;2023-11-21T12:22:45;47.00;;;32.43;;
5553;SDS011;2800;49.528;8.666;2023-11-21T12:25:22;9.80;;;5.63;;
5553;SDS011;2800;49.528;8.666;2023-11-21T12:27:50;9.40;;;6.50;;
5553;SDS011;2800;49.528;8.666;2023-11-21T12:30:17;15.63;;;6.70;;
5553;SDS011;2800;49.528;8.666;2023-11-21T12:32:53;15.77;;;10.97;;
5553;SDS011;2800;49.528;8.666;2023-11-21T12:35:21;15.07;;;10.23;;
5553;SDS011;2800;49.528;8.666;2023-11-21T12:37:51;9.33;;;4.50;;
5553;SDS011;2800;49.528;8.666;2023-11-21T12:40:17;20.37;;;13.60;;
5553;SDS011;2800;49.528;8.666;2023-11-21T12:42:44;15.47;;;9.70;;
5553;SDS011;2800;49.528;8.666;2023-11-21T12:47:45;10.83;;;5.90;;
5553;SDS011;2800;49.528;8.666;2023-11-21T12:50:20;7.87;;;4.20;;
5553;SDS011;2800;49.528;8.666;2023-11-21T12:52:53;9.37;;;4.37;;
5553;SDS011;2800;49.528;8.666;2023-11-21T12:55:23;9.60;;;4.90;;
5553;SDS011;2800;49.528;8.666;2023-11-21T12:57:51;8.93;;;4.30;;
5553;SDS011;2800;49.528;8.666;2023-11-21T13:00:28;6.70;;;2.97;;
5553;SDS011;2800;49.528;8.666;2023-11-21T13:02:58;6.90;;;3.10;;
5553;SDS011;2800;49.528;8.666;2023-11-21T13:05:25;7.10;;;3.33;;
5553;SDS011;2800;49.528;8.666;2023-11-21T13:08:03;6.40;;;2.57;;
5553;SDS011;2800;49.528;8.666;2023-11-21T13:10:33;6.00;;;2.77;;
5553;SDS011;2800;49.528;8.666;2023-11-21T13:13:01;8.33;;;3.97;;
5553;SDS011;2800;49.528;8.666;2023-11-21T13:15:39;6.93;;;2.40;;
5553;SDS011;2800;49.528;8.666;2023-11-21T13:18:06;8.17;;;5.10;;
5553;SDS011;2800;49.528;8.666;2023-11-21T13:20:32;8.80;;;2.73;;
5553;SDS011;2800;49.528;8.666;2023-11-21T13:22:58;8.43;;;4.30;;
5553;SDS011;2800;49.528;8.666;2023-11-21T13:25:25;33.87;;;24.93;;
5553;SDS011;2800;49.528;8.666;2023-11-21T13:27:56;20.50;;;14.30;;
5553;SDS011;2800;49.528;8.666;2023-11-21T13:30:23;5.73;;;2.87;;
5553;SDS011;2800;49.528;8.666;2023-11-21T13:32:55;6.40;;;2.70;;
5553;SDS011;2800;49.528;8.666;2023-11-21T13:35:27;7.97;;;3.40;;
5553;SDS011;2800;49.528;8.666;2023-11-21T13:38:02;6.90;;;3.00;;
5553;SDS011;2800;49.528;8.666;2023-11-21T13:40:52;8.73;;;2.50;;
5553;SDS011;2800;49.528;8.666;2023-11-21T13:43:20;8.57;;;3.60;;
5553;SDS011;2800;49.528;8.666;2023-11-21T13:45:47;24.50;;;5.43;;
5553;SDS011;2800;49.528;8.666;2023-11-21T13:48:24;11.73;;;6.67;;
5553;SDS011;2800;49.528;8.666;2023-11-21T13:51:12;9.70;;;6.00;;
5553;SDS011;2800;49.528;8.666;2023-11-21T13:53:42;11.27;;;3.37;;
5553;SDS011;2800;49.528;8.666;2023-11-21T13:56:09;5.80;;;2.57;;
5553;SDS011;2800;49.528;8.666;2023-11-21T13:58:34;6.10;;;2.43;;
5553;SDS011;2800;49.528;8.666;2023-11-21T14:01:16;6.97;;;2.57;;
5553;SDS011;2800;49.528;8.666;2023-11-21T14:03:54;9.63;;;5.23;;
5553;SDS011;2800;49.528;8.666;2023-11-21T14:06:26;5.67;;;2.40;;
5553;SDS011;2800;49.528;8.666;2023-11-21T14:08:59;5.20;;;2.47;;
5553;SDS011;2800;49.528;8.666;2023-11-21T14:11:30;7.40;;;3.10;;
5553;SDS011;2800;49.528;8.666;2023-11-21T14:13:55;7.53;;;3.10;;
5553;SDS011;2800;49.528;8.666;2023-11-21T14:16:21;6.20;;;2.80;;
5553;SDS011;2800;49.528;8.666;2023-11-21T14:18:47;7.17;;;3.03;;
5553;SDS011;2800;49.528;8.666;2023-11-21T14:21:22;7.70;;;3.23;;
5553;SDS011;2800;49.528;8.666;2023-11-21T14:23:48;9.90;;;3.30;;
5553;SDS011;2800;49.528;8.666;2023-11-21T14:26:14;7.03;;;3.30;;
5553;SDS011;2800;49.528;8.666;2023-11-21T14:28:40;10.10;;;3.53;;
5553;SDS011;2800;49.528;8.666;2023-11-21T14:31:06;8.13;;;3.67;;
5553;SDS011;2800;49.528;8.666;2023-11-21T14:33:32;7.70;;;3.70;;
5553;SDS011;2800;49.528;8.666;2023-11-21T14:35:58;8.87;;;4.30;;
5553;SDS011;2800;49.528;8.666;2023-11-21T14:38:24;11.57;;;4.00;;
5553;SDS011;2800;49.528;8.666;2023-11-21T14:40:49;11.50;;;3.73;;
5553;SDS011;2800;49.528;8.666;2023-11-21T14:43:15;7.50;;;3.63;;
5553;SDS011;2800;49.528;8.666;2023-11-21T14:45:41;8.73;;;3.93;;
5553;SDS011;2800;49.528;8.666;2023-11-21T14:48:07;9.50;;;3.77;;
5553;SDS011;2800;49.528;8.666;2023-11-21T14:50:41;13.10;;;4.17;;
5553;SDS011;2800;49.528;8.666;2023-11-21T14:53:07;6.73;;;3.23;;
5553;SDS011;2800;49.528;8.666;2023-11-21T14:55:37;12.13;;;4.00;;
5553;SDS011;2800;49.528;8.666;2023-11-21T14:58:18;10.83;;;4.50;;
5553;SDS011;2800;49.528;8.666;2023-11-21T15:00:56;14.43;;;4.50;;
5553;SDS011;2800;49.528;8.666;2023-11-21T15:03:23;13.90;;;4.20;;
5553;SDS011;2800;49.528;8.666;2023-11-21T15:06:08;9.40;;;3.90;;
5553;SDS011;2800;49.528;8.666;2023-11-21T15:08:54;14.60;;;4.83;;
5553;SDS011;2800;49.528;8.666;2023-11-21T15:11:34;13.43;;;4.93;;
5553;SDS011;2800;49.528;8.666;2023-11-21T15:14:02;11.63;;;4.80;;
5553;SDS011;2800;49.528;8.666;2023-11-21T15:16:32;18.07;;;7.97;;